ADDS METAR Data INFO
IDs: Format: Raw Decoded Include TAF

Data at: 0507 UTC 23 May 2017

KMKN 230455Z AUTO 20004KT 10SM CLR 19/18 A2994 RMK AO2 LTG DSNT S T01920181
KMKN 230435Z AUTO 28003KT 10SM SCT100 SCT120 20/18 A2995 RMK AO2 LTG DSNT SW T01950180
KMKN 230415Z AUTO 17013G18KT 10SM SCT120 19/18 A2988 RMK AO2 T01930182
KMKN 230355Z AUTO 17007KT 10SM SCT100 SCT120 19/18 A2993 RMK AO2 T01920184
KMKN 230335Z AUTO 16004KT 10SM TS SCT090 19/19 A2996 RMK AO2 T01910191
KMKN 230315Z AUTO 18004KT 10SM -RA SCT090 19/19 A2996 RMK AO2 LTG DSNT W AND NW T01920188
KMKN 230255Z AUTO 02003KT 10SM SCT044 BKN065 20/18 A2998 RMK AO2 LTG DSNT NW T01990177
KMKN 230235Z AUTO 00000KT 10SM OVC044 20/18 A2997 RMK AO2 LTG DSNT NW T02010180
KMKN 230220Z AUTO 00000KT 10SM BKN044 20/18 A2996 RMK AO2 LTG DSNT NW T01980177
KMKN 230155Z AUTO 17004KT 10SM SCT042 20/18 A2994 RMK AO2 LTG DSNT NW T02020175
KMKN 230135Z AUTO 16004KT 10SM BKN042 21/17 A2993 RMK AO2 T02070174
KMKN 230115Z AUTO 17003KT 10SM OVC042 21/17 A2993 RMK AO2 T02130173
KMKN 230055Z AUTO 17003KT 10SM OVC036 22/17 A2993 RMK AO2 LTG DSNT N T02160172
KMKN 230035Z AUTO 15004KT 10SM SCT026 OVC034 22/17 A2993 RMK AO2 LTG DSNT NW T02170172
KMKN 230015Z AUTO 17003KT 10SM SCT026 OVC034 22/17 A2994 RMK AO2 LTG DSNT N T02180170
KMKN 222355Z AUTO 15004KT 10SM BKN032 22/17 A2994 RMK AO2 T02220173 10237 20205
KMKN 222335Z AUTO 13005KT 10SM BKN032 23/17 A2993 RMK AO2 T02250173
KMKN 222315Z AUTO 12005KT 10SM SCT023 BKN030 23/17 A2994 RMK AO2 T02250173
KMKN 222255Z AUTO 13005KT 10SM BKN028 23/17 A2994 RMK AO2 LTG DSNT N T02300171
KMKN 222235Z AUTO 11005KT 10SM OVC026 23/18 A2995 RMK AO2 T02320176
KMKN 222215Z AUTO 11007KT 10SM OVC026 23/18 A2995 RMK AO2 LTG DSNT N T02270176
KMKN 222155Z AUTO 12007KT 10SM BKN024 24/18 A2996 RMK AO2 T02350176
KMKN 222135Z AUTO 12006KT 10SM BKN022 OVC026 23/17 A2997 RMK AO2 T02260174
KMKN 222115Z AUTO 17006KT 10SM OVC022 24/18 A2997 RMK AO2 T02350178
KMKN 222055Z AUTO 12003KT 10SM OVC018 22/17 A2998 RMK AO2 T02200174
KMKN 222035Z AUTO 12006KT 10SM OVC018 22/18 A2999 RMK AO2 T02160175
KMKN 222015Z AUTO 08005KT 10SM OVC018 22/18 A3000 RMK AO2 T02200178
KMKN 221955Z AUTO 08007KT 10SM BKN018 OVC022 22/17 A3001 RMK AO2 T02150174
KMKN 221935Z AUTO 09007KT 10SM OVC018 21/17 A3002 RMK AO2 T02050172
KMKN 221915Z AUTO 08007KT 10SM OVC018 21/17 A3003 RMK AO2 T02070172
KMKN 221855Z AUTO 07007KT 10SM BKN018 OVC023 21/17 A3003 RMK AO2 T02130171
KMKN 221840Z AUTO 07005KT 7SM OVC016 21/17 A3003 RMK AO2 T02090172
KMKN 221815Z AUTO 08005KT 10SM OVC016 21/17 A3005 RMK AO2 T02110171
KMKN 221755Z AUTO 09004KT 10SM OVC014 20/17 A3006 RMK AO2 T02040168 10204 20138
KMKN 221735Z AUTO 06005KT 10SM OVC012 20/17 A3006 RMK AO2 LTG DSNT SE T01990168
KMKN 221715Z AUTO 05005KT 10SM OVC012 19/17 A3007 RMK AO2 T01940166
KMKN 221655Z AUTO 03003KT 10SM OVC010 18/16 A3008 RMK AO2 T01830163
KMKN 221635Z AUTO 05004KT 10SM OVC010 18/16 A3009 RMK AO2 T01790161
KMKN 221615Z AUTO 06005KT 10SM OVC010 18/16 A3009 RMK AO2 T01800160
KMKN 221555Z AUTO 06004KT 10SM OVC010 18/16 A3008 RMK AO2 T01760160
KMKN 221535Z AUTO 08004KT 10SM OVC008 17/16 A3009 RMK AO2 T01720162
KMKN 221515Z AUTO 09006KT 10SM OVC008 17/16 A3008 RMK AO2 T01680163
KMKN 221455Z AUTO 08004KT 10SM OVC008 16/16 A3008 RMK AO2 T01610160
KMKN 221435Z AUTO 05006KT 10SM BKN008 OVC011 16/16 A3009 RMK AO2 T01580158
KMKN 221415Z AUTO 09007KT 10SM OVC012 16/15 A3009 RMK AO2 T01580154
KMKN 221355Z AUTO 11006KT 10SM SCT007 OVC015 16/16 A3009 RMK AO2 T01580157
KMKN 221335Z AUTO 00000KT 10SM SCT007 OVC013 15/15 A3009 RMK AO2 T01530153
KMKN 221315Z AUTO 00000KT 10SM OVC007 15/15 A3009 RMK AO2 T01470147
KMKN 221255Z AUTO 06003KT 10SM OVC007 14/14 A3009 RMK AO2 T01430143
KMKN 221235Z AUTO 00000KT 10SM OVC007 14/14 A3009 RMK AO2 T01410141
KMKN 221215Z AUTO 00000KT 10SM OVC007 14/14 A3008 RMK AO2 T01400140
KMKN 221155Z AUTO 02003KT 10SM OVC007 14/14 A3008 RMK AO2 60005 70012 T01400140 10146 20136
KMKN 221135Z AUTO 00000KT 10SM BKN007 OVC090 14/14 A3008 RMK AO2 T01390139
KMKN 221115Z AUTO 10SM SCT007 SCT080 OVC090 14/14 A3008 RMK AO2 T01370137
KMKN 221055Z AUTO 10SM SCT007 BKN085 OVC090 14/14 A3008 RMK AO2 T01370137
KMKN 221035Z AUTO 10SM BKN007 BKN055 OVC085 14/14 A3008 RMK AO2 T01380138
KMKN 221020Z AUTO 10SM OVC007 14/14 A3009 RMK AO2 T01400140
KMKN 220955Z AUTO 10SM BKN007 OVC070 14/14 A3010 RMK AO2 T01400140
KMKN 220935Z AUTO 10SM -DZ BKN007 OVC070 14/14 A3010 RMK AO2 T01400140
KMKN 220915Z AUTO 10SM OVC005 14/14 A3011 RMK AO2 T01420142
KMKN 220855Z AUTO 10SM -DZ OVC005 15/15 A3012 RMK AO2 P0001 60005 T01450145
KMKN 220835Z AUTO 10004KT 10SM RA BKN005 BKN028 OVC080 15/15 A3012 RMK AO2 P0001 T01450145
KMKN 220815Z AUTO 10005KT 10SM -DZ OVC007 15/15 A3013 RMK AO2 P0001 T01450145
KMKN 220755Z AUTO 09004KT 10SM DZ OVC005 15/15 A3014 RMK AO2 P0002 T01450145
KMKN 220740Z AUTO 08003KT 10SM -DZ OVC005 15/15 A3014 RMK AO2 P0001 T01450145
KMKN 220715Z AUTO 00000KT 10SM DZ OVC005 15/15 A3015 RMK AO2 P0001 T01450145
KMKN 220655Z AUTO 09003KT 10SM -DZ OVC005 15/15 A3014 RMK AO2 P0002 T01450145
KMKN 220635Z AUTO 10SM RA OVC005 15/15 A3013 RMK AO2 P0002 T01450145
KMKN 220615Z AUTO 10SM -RA OVC005 15/15 A3012 RMK AO2 T01450145
KMKN 220555Z AUTO 10SM -RA BKN007 BKN012 OVC090 15/15 A3013 RMK AO2 P0001 60005 T01450145 10180 20145 402130145
KMKN 220535Z AUTO 10SM -DZ OVC100 15/15 A3013 RMK AO2 P0001 T01460146
KMKN 220515Z AUTO 09005KT 10SM RA BKN100 OVC110 15/15 A3013 RMK AO2 P0001 T01460146
KMKN 220455Z AUTO 10SM RA OVC100 15/15 A3013 RMK AO2 T01480148
KMKN 220435Z AUTO 12003KT 10SM -RA OVC100 15/15 A3013 RMK AO2 T01470147
KMKN 220415Z AUTO 10SM OVC110 15/15 A3011 RMK AO2 T01460146
KMKN 220355Z AUTO 10SM OVC110 15/15 A3011 RMK AO2 P0002 T01450145
KMKN 220335Z AUTO 10SM RA OVC120 15/15 A3010 RMK AO2 P0002 T01450145
KMKN 220315Z AUTO 10SM -RA OVC120 15/15 A3011 RMK AO2 P0001 T01470146
KMKN 220255Z AUTO 10SM -RA BKN120 15/14 A3013 RMK AO2 P0002 60002 T01500137
KMKN 220235Z AUTO 10SM -DZ BKN120 15/13 A3013 RMK AO2 P0002 T01510133
KMKN 220215Z AUTO 13005KT 10SM -RA OVC110 15/13 A3013 RMK AO2 LTG DSNT SE P0001 T01510131
KMKN 220155Z AUTO 14005KT 10SM RA OVC120 16/13 A3013 RMK AO2 LTG DSNT E T01560125
KMKN 220135Z AUTO 14006KT 10SM -RA BKN120 17/12 A3012 RMK AO2 LTG DSNT E AND SE T01650120
KMKN 220115Z AUTO 16006KT 10SM SCT047 SCT065 SCT120 17/11 A3012 RMK AO2 LTG DSNT SE T01720111
KMKN 220055Z AUTO 18006KT 10SM BKN045 OVC065 18/11 A3012 RMK AO2 LTG DSNT SE T01760111
KMKN 220035Z AUTO 20006KT 10SM OVC043 18/12 A3015 RMK AO2 LTG DSNT SE AND S T01760116
KMKN 220015Z AUTO 23005KT 10SM OVC043 18/12 A3014 RMK AO2 LTG DSNT SE T01770120
KMKN 212355Z AUTO 25004KT 10SM OVC041 18/12 A3013 RMK AO2 LTG DSNT SE T01800118 10193 20180
KMKN 212335Z AUTO 00000KT 10SM BKN041 BKN049 OVC060 18/12 A3012 RMK AO2 LTG DSNT SE AND S T01810118
KMKN 212315Z AUTO 00000KT 10SM SCT049 BKN060 18/12 A3011 RMK AO2 LTG DSNT SE T01800115
KMKN 212255Z AUTO 00000KT 10SM SCT049 SCT120 18/11 A3012 RMK AO2 LTG DSNT W T01830107
KMKN 212235Z AUTO 00000KT 10SM SCT046 SCT120 18/11 A3012 RMK AO2 LTG DSNT S AND W T01820107
KMKN 212215Z AUTO 11003KT 10SM SCT046 BKN095 OVC120 19/11 A3012 RMK AO2 LTG DSNT S AND SW T01850107
KMKN 212155Z AUTO 10005KT 10SM SCT050 OVC095 19/11 A3014 RMK AO2 LTG DSNT S AND SW T01850105
KMKN 212135Z AUTO 07005KT 10SM SCT046 OVC085 19/11 A3014 RMK AO2 LTG DSNT S AND SW T01850109
KMKN 212115Z AUTO 07006KT 10SM BKN044 OVC075 19/10 A3015 RMK AO2 T01850104
KMKN 212055Z AUTO 09008KT 10SM BKN048 OVC075 19/10 A3015 RMK AO2 LTG DSNT S T01850099
KMKN 212035Z AUTO 08006KT 10SM OVC048 19/10 A3015 RMK AO2 LTG DSNT S AND SW T01870102
KMKN 212015Z AUTO 07007KT 10SM OVC048 19/11 A3015 RMK AO2 LTG DSNT SW T01910110
KMKN 211955Z AUTO 07010KT 10SM OVC048 19/11 A3016 RMK AO2 T01900107
KMKN 211935Z AUTO 11007KT 10SM OVC048 19/11 A3015 RMK AO2 T01900113
KMKN 211915Z AUTO 09009KT 10SM OVC048 19/11 A3016 RMK AO2 T01880106
KMKN 211855Z AUTO 08012G15KT 10SM OVC046 19/11 A3015 RMK AO2 T01900105
KMKN 211835Z AUTO 04010G14KT 10SM OVC046 19/12 A3016 RMK AO2 T01900122
KMKN 211815Z AUTO 05011KT 10SM OVC044 19/12 A3017 RMK AO2 T01900121
KMKN 211800Z AUTO 04012KT 10SM OVC044 19/12 A3017 RMK AO2 T01920115
KMKN 211735Z AUTO 07010G16KT 040V100 10SM BKN044 BKN075 BKN095 21/12 A3016 RMK AO2 T02070118
KMKN 211715Z AUTO 08009G16KT 10SM TS SCT048 BKN075 BKN100 20/12 A3018 RMK AO2 LTG DSNT NE T02040115


Page loaded:  05:07 UTC  |   10:07 PM Pacific  |   11:07 PM Mountain  |   12:07 AM Central  |   01:07 AM Eastern

 

ADVISORIES

FORECASTS

FORECASTS

OBSERVATIONS

USER TOOLS

ABOUT US